sensor_id;sensor_type;location;lat;lon;timestamp;P1;durP1;ratioP1;P2;durP2;ratioP2
76761;SDS011;65705;51.032;13.790;2024-02-26T00:01:41;20.00;;;11.75;;
76761;SDS011;65705;51.032;13.790;2024-02-26T00:04:09;19.27;;;11.57;;
76761;SDS011;65705;51.032;13.790;2024-02-26T00:06:35;21.58;;;11.70;;
76761;SDS011;65705;51.032;13.790;2024-02-26T00:09:02;19.13;;;12.05;;
76761;SDS011;65705;51.032;13.790;2024-02-26T00:11:31;19.67;;;10.82;;
76761;SDS011;65705;51.032;13.790;2024-02-26T00:13:57;21.65;;;11.93;;
76761;SDS011;65705;51.032;13.790;2024-02-26T00:16:23;22.08;;;12.80;;
76761;SDS011;65705;51.032;13.790;2024-02-26T00:18:49;23.35;;;11.10;;
76761;SDS011;65705;51.032;13.790;2024-02-26T00:21:15;22.92;;;11.18;;
76761;SDS011;65705;51.032;13.790;2024-02-26T00:23:41;28.00;;;12.95;;
76761;SDS011;65705;51.032;13.790;2024-02-26T00:26:07;20.92;;;11.43;;
76761;SDS011;65705;51.032;13.790;2024-02-26T00:28:33;20.80;;;11.40;;
76761;SDS011;65705;51.032;13.790;2024-02-26T00:30:59;23.15;;;12.05;;
76761;SDS011;65705;51.032;13.790;2024-02-26T00:33:25;20.30;;;11.40;;
76761;SDS011;65705;51.032;13.790;2024-02-26T00:35:50;19.73;;;11.48;;
76761;SDS011;65705;51.032;13.790;2024-02-26T00:38:16;22.75;;;12.23;;
76761;SDS011;65705;51.032;13.790;2024-02-26T00:40:42;18.75;;;11.82;;
76761;SDS011;65705;51.032;13.790;2024-02-26T00:43:07;23.83;;;11.18;;
76761;SDS011;65705;51.032;13.790;2024-02-26T00:45:33;20.58;;;11.88;;
76761;SDS011;65705;51.032;13.790;2024-02-26T00:47:59;20.45;;;11.40;;
76761;SDS011;65705;51.032;13.790;2024-02-26T00:50:31;20.83;;;12.30;;
76761;SDS011;65705;51.032;13.790;2024-02-26T00:52:57;20.60;;;11.73;;
76761;SDS011;65705;51.032;13.790;2024-02-26T00:55:26;25.90;;;12.13;;
76761;SDS011;65705;51.032;13.790;2024-02-26T00:57:51;21.38;;;12.05;;
76761;SDS011;65705;51.032;13.790;2024-02-26T01:00:17;20.52;;;12.52;;
76761;SDS011;65705;51.032;13.790;2024-02-26T01:02:43;21.58;;;12.32;;
76761;SDS011;65705;51.032;13.790;2024-02-26T01:05:12;20.60;;;12.00;;
76761;SDS011;65705;51.032;13.790;2024-02-26T01:07:41;25.60;;;12.27;;
76761;SDS011;65705;51.032;13.790;2024-02-26T01:10:07;21.60;;;12.02;;
76761;SDS011;65705;51.032;13.790;2024-02-26T01:12:34;23.00;;;12.85;;
76761;SDS011;65705;51.032;13.790;2024-02-26T01:15:03;23.50;;;11.95;;
76761;SDS011;65705;51.032;13.790;2024-02-26T01:17:30;21.58;;;11.63;;
76761;SDS011;65705;51.032;13.790;2024-02-26T01:19:56;20.75;;;11.48;;
76761;SDS011;65705;51.032;13.790;2024-02-26T01:22:21;21.25;;;12.70;;
76761;SDS011;65705;51.032;13.790;2024-02-26T01:24:47;22.88;;;13.15;;
76761;SDS011;65705;51.032;13.790;2024-02-26T01:27:13;28.27;;;13.13;;
76761;SDS011;65705;51.032;13.790;2024-02-26T01:29:41;24.45;;;13.23;;
76761;SDS011;65705;51.032;13.790;2024-02-26T01:32:07;26.45;;;13.35;;
76761;SDS011;65705;51.032;13.790;2024-02-26T01:34:32;25.30;;;13.43;;
76761;SDS011;65705;51.032;13.790;2024-02-26T01:36:59;23.40;;;12.43;;
76761;SDS011;65705;51.032;13.790;2024-02-26T01:39:25;22.10;;;12.48;;
76761;SDS011;65705;51.032;13.790;2024-02-26T01:41:50;22.17;;;12.93;;
76761;SDS011;65705;51.032;13.790;2024-02-26T01:44:16;25.83;;;12.82;;
76761;SDS011;65705;51.032;13.790;2024-02-26T01:46:42;20.73;;;11.77;;
76761;SDS011;65705;51.032;13.790;2024-02-26T01:49:08;23.35;;;12.35;;
76761;SDS011;65705;51.032;13.790;2024-02-26T01:51:38;22.05;;;11.77;;
76761;SDS011;65705;51.032;13.790;2024-02-26T01:54:05;20.88;;;12.18;;
76761;SDS011;65705;51.032;13.790;2024-02-26T01:56:33;23.48;;;12.25;;
76761;SDS011;65705;51.032;13.790;2024-02-26T01:59:00;24.05;;;11.85;;
76761;SDS011;65705;51.032;13.790;2024-02-26T02:01:27;23.65;;;12.43;;
76761;SDS011;65705;51.032;13.790;2024-02-26T02:03:58;21.73;;;12.35;;
76761;SDS011;65705;51.032;13.790;2024-02-26T02:06:25;18.65;;;11.48;;
76761;SDS011;65705;51.032;13.790;2024-02-26T02:08:52;19.20;;;11.80;;
76761;SDS011;65705;51.032;13.790;2024-02-26T02:11:19;20.60;;;11.15;;
76761;SDS011;65705;51.032;13.790;2024-02-26T02:13:45;19.50;;;11.40;;
76761;SDS011;65705;51.032;13.790;2024-02-26T02:16:10;23.67;;;12.02;;
76761;SDS011;65705;51.032;13.790;2024-02-26T02:18:36;20.20;;;9.95;;
76761;SDS011;65705;51.032;13.790;2024-02-26T02:21:02;19.95;;;11.27;;
76761;SDS011;65705;51.032;13.790;2024-02-26T02:23:28;20.67;;;11.85;;
76761;SDS011;65705;51.032;13.790;2024-02-26T02:25:54;21.55;;;10.32;;
76761;SDS011;65705;51.032;13.790;2024-02-26T02:28:21;17.67;;;10.30;;
76761;SDS011;65705;51.032;13.790;2024-02-26T02:30:48;17.83;;;10.65;;
76761;SDS011;65705;51.032;13.790;2024-02-26T02:33:15;21.50;;;11.77;;
76761;SDS011;65705;51.032;13.790;2024-02-26T02:35:41;20.63;;;11.63;;
76761;SDS011;65705;51.032;13.790;2024-02-26T02:38:07;20.00;;;10.93;;
76761;SDS011;65705;51.032;13.790;2024-02-26T02:40:35;23.98;;;12.15;;
76761;SDS011;65705;51.032;13.790;2024-02-26T02:43:01;19.50;;;11.32;;
76761;SDS011;65705;51.032;13.790;2024-02-26T02:45:28;20.75;;;11.65;;
76761;SDS011;65705;51.032;13.790;2024-02-26T02:47:54;20.10;;;11.18;;
76761;SDS011;65705;51.032;13.790;2024-02-26T02:50:20;19.35;;;11.35;;
76761;SDS011;65705;51.032;13.790;2024-02-26T02:52:45;21.70;;;10.30;;
76761;SDS011;65705;51.032;13.790;2024-02-26T02:55:12;18.85;;;10.55;;
76761;SDS011;65705;51.032;13.790;2024-02-26T02:57:37;20.75;;;11.10;;
76761;SDS011;65705;51.032;13.790;2024-02-26T03:00:09;19.52;;;10.75;;
76761;SDS011;65705;51.032;13.790;2024-02-26T03:02:36;20.77;;;11.57;;
76761;SDS011;65705;51.032;13.790;2024-02-26T03:05:03;22.92;;;11.43;;
76761;SDS011;65705;51.032;13.790;2024-02-26T03:07:29;18.30;;;10.90;;
76761;SDS011;65705;51.032;13.790;2024-02-26T03:09:55;19.98;;;11.50;;
76761;SDS011;65705;51.032;13.790;2024-02-26T03:12:21;20.17;;;10.82;;
76761;SDS011;65705;51.032;13.790;2024-02-26T03:14:47;19.52;;;11.02;;
76761;SDS011;65705;51.032;13.790;2024-02-26T03:17:13;18.73;;;10.07;;
76761;SDS011;65705;51.032;13.790;2024-02-26T03:19:39;20.77;;;10.88;;
76761;SDS011;65705;51.032;13.790;2024-02-26T03:22:05;20.63;;;10.88;;
76761;SDS011;65705;51.032;13.790;2024-02-26T03:24:30;21.95;;;11.50;;
76761;SDS011;65705;51.032;13.790;2024-02-26T03:26:56;18.58;;;10.93;;
76761;SDS011;65705;51.032;13.790;2024-02-26T03:29:22;19.15;;;11.10;;
76761;SDS011;65705;51.032;13.790;2024-02-26T03:31:48;20.33;;;10.75;;
76761;SDS011;65705;51.032;13.790;2024-02-26T03:34:14;19.60;;;11.02;;
76761;SDS011;65705;51.032;13.790;2024-02-26T03:36:40;21.27;;;10.85;;
76761;SDS011;65705;51.032;13.790;2024-02-26T03:39:06;26.17;;;11.73;;
76761;SDS011;65705;51.032;13.790;2024-02-26T03:41:33;20.40;;;11.32;;
76761;SDS011;65705;51.032;13.790;2024-02-26T03:43:59;18.58;;;10.95;;
76761;SDS011;65705;51.032;13.790;2024-02-26T03:46:25;18.33;;;10.23;;
76761;SDS011;65705;51.032;13.790;2024-02-26T03:48:50;16.67;;;9.77;;
76761;SDS011;65705;51.032;13.790;2024-02-26T03:51:16;19.77;;;10.18;;
76761;SDS011;65705;51.032;13.790;2024-02-26T03:53:42;19.42;;;10.18;;
76761;SDS011;65705;51.032;13.790;2024-02-26T03:56:08;18.52;;;10.15;;
76761;SDS011;65705;51.032;13.790;2024-02-26T03:58:33;16.65;;;9.55;;
76761;SDS011;65705;51.032;13.790;2024-02-26T04:01:00;21.58;;;12.05;;
76761;SDS011;65705;51.032;13.790;2024-02-26T04:03:26;19.42;;;10.30;;
76761;SDS011;65705;51.032;13.790;2024-02-26T04:05:51;17.90;;;10.77;;
76761;SDS011;65705;51.032;13.790;2024-02-26T04:08:17;19.08;;;10.70;;
76761;SDS011;65705;51.032;13.790;2024-02-26T04:10:43;19.02;;;9.95;;
76761;SDS011;65705;51.032;13.790;2024-02-26T04:13:09;18.23;;;10.55;;
76761;SDS011;65705;51.032;13.790;2024-02-26T04:15:34;18.63;;;10.57;;
76761;SDS011;65705;51.032;13.790;2024-02-26T04:18:00;17.52;;;9.20;;
76761;SDS011;65705;51.032;13.790;2024-02-26T04:20:26;18.48;;;9.32;;
76761;SDS011;65705;51.032;13.790;2024-02-26T04:22:51;18.60;;;9.80;;
76761;SDS011;65705;51.032;13.790;2024-02-26T04:25:18;17.80;;;10.13;;
76761;SDS011;65705;51.032;13.790;2024-02-26T04:27:44;21.13;;;10.50;;
76761;SDS011;65705;51.032;13.790;2024-02-26T04:30:10;19.08;;;9.45;;
76761;SDS011;65705;51.032;13.790;2024-02-26T04:32:36;19.85;;;10.50;;
76761;SDS011;65705;51.032;13.790;2024-02-26T04:35:02;19.58;;;11.18;;
76761;SDS011;65705;51.032;13.790;2024-02-26T04:37:28;21.27;;;11.40;;
76761;SDS011;65705;51.032;13.790;2024-02-26T04:39:59;20.40;;;10.85;;
76761;SDS011;65705;51.032;13.790;2024-02-26T04:42:26;18.48;;;10.30;;
76761;SDS011;65705;51.032;13.790;2024-02-26T04:44:53;23.10;;;11.00;;
76761;SDS011;65705;51.032;13.790;2024-02-26T04:47:20;17.20;;;9.93;;
76761;SDS011;65705;51.032;13.790;2024-02-26T04:49:48;20.73;;;9.60;;
76761;SDS011;65705;51.032;13.790;2024-02-26T04:52:14;19.58;;;10.75;;
76761;SDS011;65705;51.032;13.790;2024-02-26T04:54:40;17.95;;;10.23;;
76761;SDS011;65705;51.032;13.790;2024-02-26T04:57:06;17.55;;;10.07;;
76761;SDS011;65705;51.032;13.790;2024-02-26T04:59:32;20.58;;;8.82;;
76761;SDS011;65705;51.032;13.790;2024-02-26T05:01:58;18.27;;;10.38;;
76761;SDS011;65705;51.032;13.790;2024-02-26T05:04:23;17.00;;;10.73;;
76761;SDS011;65705;51.032;13.790;2024-02-26T05:06:49;18.90;;;9.68;;
76761;SDS011;65705;51.032;13.790;2024-02-26T05:09:15;21.15;;;10.23;;
76761;SDS011;65705;51.032;13.790;2024-02-26T05:11:41;22.00;;;10.52;;
76761;SDS011;65705;51.032;13.790;2024-02-26T05:14:06;19.70;;;10.38;;
76761;SDS011;65705;51.032;13.790;2024-02-26T05:16:33;19.38;;;10.27;;
76761;SDS011;65705;51.032;13.790;2024-02-26T05:18:58;16.95;;;9.27;;
76761;SDS011;65705;51.032;13.790;2024-02-26T05:21:24;19.83;;;10.13;;
76761;SDS011;65705;51.032;13.790;2024-02-26T05:23:50;16.17;;;9.27;;
76761;SDS011;65705;51.032;13.790;2024-02-26T05:26:19;18.63;;;10.38;;
76761;SDS011;65705;51.032;13.790;2024-02-26T05:28:48;18.08;;;10.13;;
76761;SDS011;65705;51.032;13.790;2024-02-26T05:31:14;21.90;;;9.23;;
76761;SDS011;65705;51.032;13.790;2024-02-26T05:33:40;16.98;;;9.90;;
76761;SDS011;65705;51.032;13.790;2024-02-26T05:36:06;16.77;;;9.07;;
76761;SDS011;65705;51.032;13.790;2024-02-26T05:38:32;21.02;;;9.35;;
76761;SDS011;65705;51.032;13.790;2024-02-26T05:40:58;19.45;;;10.25;;
76761;SDS011;65705;51.032;13.790;2024-02-26T05:43:24;18.10;;;10.13;;
76761;SDS011;65705;51.032;13.790;2024-02-26T05:45:51;17.58;;;8.40;;
76761;SDS011;65705;51.032;13.790;2024-02-26T05:48:17;21.13;;;9.63;;
76761;SDS011;65705;51.032;13.790;2024-02-26T05:50:47;21.25;;;10.27;;
76761;SDS011;65705;51.032;13.790;2024-02-26T05:53:13;17.17;;;9.43;;
76761;SDS011;65705;51.032;13.790;2024-02-26T05:55:39;24.63;;;9.90;;
76761;SDS011;65705;51.032;13.790;2024-02-26T05:58:04;19.42;;;9.70;;
76761;SDS011;65705;51.032;13.790;2024-02-26T06:00:30;18.70;;;9.50;;
76761;SDS011;65705;51.032;13.790;2024-02-26T06:02:56;16.70;;;8.48;;
76761;SDS011;65705;51.032;13.790;2024-02-26T06:05:23;18.38;;;9.13;;
76761;SDS011;65705;51.032;13.790;2024-02-26T06:07:49;16.58;;;8.93;;
76761;SDS011;65705;51.032;13.790;2024-02-26T06:10:14;18.23;;;9.55;;
76761;SDS011;65705;51.032;13.790;2024-02-26T06:12:40;20.20;;;9.73;;
76761;SDS011;65705;51.032;13.790;2024-02-26T06:15:06;18.25;;;9.18;;
76761;SDS011;65705;51.032;13.790;2024-02-26T06:17:32;19.63;;;9.15;;
76761;SDS011;65705;51.032;13.790;2024-02-26T06:19:59;24.50;;;9.45;;
76761;SDS011;65705;51.032;13.790;2024-02-26T06:22:25;19.00;;;8.82;;
76761;SDS011;65705;51.032;13.790;2024-02-26T06:24:51;22.77;;;8.80;;
76761;SDS011;65705;51.032;13.790;2024-02-26T06:27:17;15.95;;;8.60;;
76761;SDS011;65705;51.032;13.790;2024-02-26T06:29:42;17.85;;;8.70;;
76761;SDS011;65705;51.032;13.790;2024-02-26T06:32:08;16.73;;;8.27;;
76761;SDS011;65705;51.032;13.790;2024-02-26T06:34:34;21.20;;;8.60;;
76761;SDS011;65705;51.032;13.790;2024-02-26T06:37:00;16.67;;;9.15;;
76761;SDS011;65705;51.032;13.790;2024-02-26T06:39:26;15.27;;;8.25;;
76761;SDS011;65705;51.032;13.790;2024-02-26T06:41:52;17.70;;;9.13;;
76761;SDS011;65705;51.032;13.790;2024-02-26T06:44:25;19.15;;;8.90;;
76761;SDS011;65705;51.032;13.790;2024-02-26T06:46:51;17.33;;;8.85;;
76761;SDS011;65705;51.032;13.790;2024-02-26T06:49:17;19.02;;;9.45;;
76761;SDS011;65705;51.032;13.790;2024-02-26T06:51:43;18.13;;;9.05;;
76761;SDS011;65705;51.032;13.790;2024-02-26T06:54:08;16.33;;;9.27;;
76761;SDS011;65705;51.032;13.790;2024-02-26T06:56:37;17.13;;;9.35;;
76761;SDS011;65705;51.032;13.790;2024-02-26T06:59:03;18.83;;;9.30;;
76761;SDS011;65705;51.032;13.790;2024-02-26T07:01:28;20.88;;;9.35;;
76761;SDS011;65705;51.032;13.790;2024-02-26T07:03:56;19.65;;;9.50;;
76761;SDS011;65705;51.032;13.790;2024-02-26T07:06:21;16.02;;;9.57;;
76761;SDS011;65705;51.032;13.790;2024-02-26T07:08:47;17.55;;;9.30;;
76761;SDS011;65705;51.032;13.790;2024-02-26T07:11:12;22.25;;;9.80;;
76761;SDS011;65705;51.032;13.790;2024-02-26T07:13:38;20.92;;;10.18;;
76761;SDS011;65705;51.032;13.790;2024-02-26T07:16:04;20.92;;;9.00;;
76761;SDS011;65705;51.032;13.790;2024-02-26T07:18:30;21.25;;;10.00;;
76761;SDS011;65705;51.032;13.790;2024-02-26T07:20:56;20.63;;;9.20;;
76761;SDS011;65705;51.032;13.790;2024-02-26T07:23:21;20.23;;;9.63;;
76761;SDS011;65705;51.032;13.790;2024-02-26T07:25:47;16.02;;;9.02;;
76761;SDS011;65705;51.032;13.790;2024-02-26T07:28:15;16.60;;;9.10;;
76761;SDS011;65705;51.032;13.790;2024-02-26T07:30:40;19.88;;;9.50;;
76761;SDS011;65705;51.032;13.790;2024-02-26T07:33:06;22.88;;;9.90;;
76761;SDS011;65705;51.032;13.790;2024-02-26T07:35:32;22.58;;;9.93;;
76761;SDS011;65705;51.032;13.790;2024-02-26T07:37:58;16.75;;;9.80;;
76761;SDS011;65705;51.032;13.790;2024-02-26T07:40:24;17.92;;;9.98;;
76761;SDS011;65705;51.032;13.790;2024-02-26T07:42:50;18.60;;;9.40;;
76761;SDS011;65705;51.032;13.790;2024-02-26T07:45:16;15.57;;;8.75;;
76761;SDS011;65705;51.032;13.790;2024-02-26T07:47:45;18.73;;;9.13;;
76761;SDS011;65705;51.032;13.790;2024-02-26T07:50:12;18.05;;;8.80;;
76761;SDS011;65705;51.032;13.790;2024-02-26T07:52:38;21.60;;;12.05;;
76761;SDS011;65705;51.032;13.790;2024-02-26T07:55:04;19.98;;;9.10;;
76761;SDS011;65705;51.032;13.790;2024-02-26T07:57:31;15.48;;;8.40;;
76761;SDS011;65705;51.032;13.790;2024-02-26T07:59:59;15.02;;;7.95;;
76761;SDS011;65705;51.032;13.790;2024-02-26T08:02:25;14.25;;;7.45;;
76761;SDS011;65705;51.032;13.790;2024-02-26T08:04:50;18.40;;;7.80;;
76761;SDS011;65705;51.032;13.790;2024-02-26T08:07:16;13.90;;;7.10;;
76761;SDS011;65705;51.032;13.790;2024-02-26T08:09:42;14.27;;;7.13;;
76761;SDS011;65705;51.032;13.790;2024-02-26T08:12:08;15.60;;;7.45;;
76761;SDS011;65705;51.032;13.790;2024-02-26T08:14:34;13.93;;;6.82;;
76761;SDS011;65705;51.032;13.790;2024-02-26T08:16:59;14.38;;;7.00;;
76761;SDS011;65705;51.032;13.790;2024-02-26T08:19:26;13.10;;;6.75;;
76761;SDS011;65705;51.032;13.790;2024-02-26T08:21:52;14.93;;;6.55;;
76761;SDS011;65705;51.032;13.790;2024-02-26T08:24:18;14.05;;;6.75;;
76761;SDS011;65705;51.032;13.790;2024-02-26T08:26:43;12.43;;;6.20;;
76761;SDS011;65705;51.032;13.790;2024-02-26T08:29:09;13.30;;;6.38;;
76761;SDS011;65705;51.032;13.790;2024-02-26T08:31:35;18.23;;;7.50;;
76761;SDS011;65705;51.032;13.790;2024-02-26T08:34:03;12.45;;;6.28;;
76761;SDS011;65705;51.032;13.790;2024-02-26T08:36:30;14.25;;;6.88;;
76761;SDS011;65705;51.032;13.790;2024-02-26T08:38:56;18.90;;;7.30;;
76761;SDS011;65705;51.032;13.790;2024-02-26T08:41:22;14.02;;;6.80;;
76761;SDS011;65705;51.032;13.790;2024-02-26T08:43:48;19.15;;;9.50;;
76761;SDS011;65705;51.032;13.790;2024-02-26T08:46:13;18.63;;;8.23;;
76761;SDS011;65705;51.032;13.790;2024-02-26T08:48:39;14.60;;;6.72;;
76761;SDS011;65705;51.032;13.790;2024-02-26T08:51:06;15.18;;;7.07;;
76761;SDS011;65705;51.032;13.790;2024-02-26T08:53:32;15.93;;;7.28;;
76761;SDS011;65705;51.032;13.790;2024-02-26T08:55:58;14.05;;;6.03;;
76761;SDS011;65705;51.032;13.790;2024-02-26T08:58:24;13.27;;;7.15;;
76761;SDS011;65705;51.032;13.790;2024-02-26T09:00:49;14.60;;;6.82;;
76761;SDS011;65705;51.032;13.790;2024-02-26T09:03:15;14.00;;;6.85;;
76761;SDS011;65705;51.032;13.790;2024-02-26T09:05:42;12.57;;;6.82;;
76761;SDS011;65705;51.032;13.790;2024-02-26T09:08:08;15.55;;;6.38;;
76761;SDS011;65705;51.032;13.790;2024-02-26T09:10:34;13.18;;;6.78;;
76761;SDS011;65705;51.032;13.790;2024-02-26T09:12:59;20.33;;;7.18;;
76761;SDS011;65705;51.032;13.790;2024-02-26T09:15:25;15.27;;;7.13;;
76761;SDS011;65705;51.032;13.790;2024-02-26T09:17:51;13.48;;;6.68;;
76761;SDS011;65705;51.032;13.790;2024-02-26T09:20:17;14.27;;;6.65;;
76761;SDS011;65705;51.032;13.790;2024-02-26T09:22:45;18.10;;;7.68;;
76761;SDS011;65705;51.032;13.790;2024-02-26T09:25:12;18.60;;;8.40;;
76761;SDS011;65705;51.032;13.790;2024-02-26T09:27:39;17.75;;;7.97;;
76761;SDS011;65705;51.032;13.790;2024-02-26T09:30:05;17.33;;;8.15;;
76761;SDS011;65705;51.032;13.790;2024-02-26T09:32:31;18.30;;;7.35;;
76761;SDS011;65705;51.032;13.790;2024-02-26T09:34:56;15.13;;;6.57;;
76761;SDS011;65705;51.032;13.790;2024-02-26T09:37:22;12.57;;;6.22;;
76761;SDS011;65705;51.032;13.790;2024-02-26T09:39:48;13.55;;;6.88;;
76761;SDS011;65705;51.032;13.790;2024-02-26T09:42:14;13.45;;;6.53;;
76761;SDS011;65705;51.032;13.790;2024-02-26T09:44:43;12.77;;;6.55;;
76761;SDS011;65705;51.032;13.790;2024-02-26T09:47:10;12.60;;;6.32;;
76761;SDS011;65705;51.032;13.790;2024-02-26T09:49:38;11.35;;;6.45;;
76761;SDS011;65705;51.032;13.790;2024-02-26T09:52:04;12.25;;;6.43;;
76761;SDS011;65705;51.032;13.790;2024-02-26T09:54:31;16.70;;;6.88;;
76761;SDS011;65705;51.032;13.790;2024-02-26T09:56:59;16.58;;;8.52;;
76761;SDS011;65705;51.032;13.790;2024-02-26T09:59:36;16.70;;;7.18;;
76761;SDS011;65705;51.032;13.790;2024-02-26T10:02:06;16.13;;;6.50;;
76761;SDS011;65705;51.032;13.790;2024-02-26T10:04:36;10.60;;;6.40;;
76761;SDS011;65705;51.032;13.790;2024-02-26T10:07:03;16.77;;;8.30;;
76761;SDS011;65705;51.032;13.790;2024-02-26T10:09:30;11.90;;;6.43;;
76761;SDS011;65705;51.032;13.790;2024-02-26T10:11:57;11.55;;;6.13;;
76761;SDS011;65705;51.032;13.790;2024-02-26T10:14:23;14.05;;;6.35;;
76761;SDS011;65705;51.032;13.790;2024-02-26T10:16:49;12.75;;;6.30;;
76761;SDS011;65705;51.032;13.790;2024-02-26T10:19:24;12.05;;;6.32;;
76761;SDS011;65705;51.032;13.790;2024-02-26T10:21:57;13.73;;;6.50;;
76761;SDS011;65705;51.032;13.790;2024-02-26T10:24:25;11.18;;;6.30;;
76761;SDS011;65705;51.032;13.790;2024-02-26T10:26:51;12.70;;;5.50;;
76761;SDS011;65705;51.032;13.790;2024-02-26T10:29:19;13.00;;;6.43;;
76761;SDS011;65705;51.032;13.790;2024-02-26T10:31:45;12.90;;;5.93;;
76761;SDS011;65705;51.032;13.790;2024-02-26T10:34:11;10.75;;;5.90;;
76761;SDS011;65705;51.032;13.790;2024-02-26T10:36:38;12.20;;;5.68;;
76761;SDS011;65705;51.032;13.790;2024-02-26T10:39:06;14.35;;;6.13;;
76761;SDS011;65705;51.032;13.790;2024-02-26T10:41:35;12.93;;;5.72;;
76761;SDS011;65705;51.032;13.790;2024-02-26T10:44:01;12.55;;;6.10;;
76761;SDS011;65705;51.032;13.790;2024-02-26T10:46:27;13.27;;;6.63;;
76761;SDS011;65705;51.032;13.790;2024-02-26T10:48:53;12.30;;;6.47;;
76761;SDS011;65705;51.032;13.790;2024-02-26T10:51:26;10.98;;;6.07;;
76761;SDS011;65705;51.032;13.790;2024-02-26T10:53:57;12.65;;;5.90;;
76761;SDS011;65705;51.032;13.790;2024-02-26T10:56:27;13.10;;;6.03;;
76761;SDS011;65705;51.032;13.790;2024-02-26T10:58:57;13.30;;;5.45;;
76761;SDS011;65705;51.032;13.790;2024-02-26T11:01:24;14.10;;;5.43;;
76761;SDS011;65705;51.032;13.790;2024-02-26T11:03:52;12.50;;;5.68;;
76761;SDS011;65705;51.032;13.790;2024-02-26T11:06:19;11.70;;;5.50;;
76761;SDS011;65705;51.032;13.790;2024-02-26T11:08:49;20.70;;;5.88;;
76761;SDS011;65705;51.032;13.790;2024-02-26T11:11:27;11.07;;;5.55;;
76761;SDS011;65705;51.032;13.790;2024-02-26T11:13:55;9.98;;;5.35;;
76761;SDS011;65705;51.032;13.790;2024-02-26T11:16:21;11.23;;;5.97;;
76761;SDS011;65705;51.032;13.790;2024-02-26T11:18:48;12.77;;;5.97;;
76761;SDS011;65705;51.032;13.790;2024-02-26T11:21:15;12.93;;;5.68;;
76761;SDS011;65705;51.032;13.790;2024-02-26T11:23:41;10.75;;;5.90;;
76761;SDS011;65705;51.032;13.790;2024-02-26T11:26:08;12.40;;;6.32;;
76761;SDS011;65705;51.032;13.790;2024-02-26T11:28:36;14.20;;;7.20;;
76761;SDS011;65705;51.032;13.790;2024-02-26T11:31:03;11.27;;;6.20;;
76761;SDS011;65705;51.032;13.790;2024-02-26T11:33:30;10.77;;;5.75;;
76761;SDS011;65705;51.032;13.790;2024-02-26T11:35:57;11.77;;;5.57;;
76761;SDS011;65705;51.032;13.790;2024-02-26T11:38:24;11.88;;;6.22;;
76761;SDS011;65705;51.032;13.790;2024-02-26T11:40:52;15.57;;;5.55;;
76761;SDS011;65705;51.032;13.790;2024-02-26T11:43:22;10.55;;;5.70;;
76761;SDS011;65705;51.032;13.790;2024-02-26T11:45:49;9.50;;;5.97;;
76761;SDS011;65705;51.032;13.790;2024-02-26T11:48:20;11.65;;;5.90;;
76761;SDS011;65705;51.032;13.790;2024-02-26T11:50:49;11.02;;;5.55;;
76761;SDS011;65705;51.032;13.790;2024-02-26T11:53:19;10.60;;;5.05;;
76761;SDS011;65705;51.032;13.790;2024-02-26T11:55:46;13.50;;;6.82;;
76761;SDS011;65705;51.032;13.790;2024-02-26T11:58:12;14.40;;;6.90;;
76761;SDS011;65705;51.032;13.790;2024-02-26T12:00:39;9.65;;;5.15;;
76761;SDS011;65705;51.032;13.790;2024-02-26T12:03:05;11.02;;;5.90;;
76761;SDS011;65705;51.032;13.790;2024-02-26T12:05:34;12.57;;;5.63;;
76761;SDS011;65705;51.032;13.790;2024-02-26T12:08:02;11.40;;;5.38;;
76761;SDS011;65705;51.032;13.790;2024-02-26T12:10:38;10.52;;;5.38;;
76761;SDS011;65705;51.032;13.790;2024-02-26T12:13:10;10.98;;;5.00;;
76761;SDS011;65705;51.032;13.790;2024-02-26T12:15:43;10.52;;;5.22;;
76761;SDS011;65705;51.032;13.790;2024-02-26T12:18:12;8.55;;;4.88;;
76761;SDS011;65705;51.032;13.790;2024-02-26T12:20:42;10.38;;;5.60;;
76761;SDS011;65705;51.032;13.790;2024-02-26T12:23:09;10.95;;;5.63;;
76761;SDS011;65705;51.032;13.790;2024-02-26T12:25:40;12.93;;;5.93;;
76761;SDS011;65705;51.032;13.790;2024-02-26T12:28:06;9.88;;;5.13;;
76761;SDS011;65705;51.032;13.790;2024-02-26T12:30:32;15.02;;;5.32;;
76761;SDS011;65705;51.032;13.790;2024-02-26T12:33:00;9.45;;;4.55;;
76761;SDS011;65705;51.032;13.790;2024-02-26T12:35:26;10.57;;;5.40;;
76761;SDS011;65705;51.032;13.790;2024-02-26T12:37:53;13.20;;;5.32;;
76761;SDS011;65705;51.032;13.790;2024-02-26T12:40:20;11.57;;;5.95;;
76761;SDS011;65705;51.032;13.790;2024-02-26T12:42:46;11.05;;;6.13;;
76761;SDS011;65705;51.032;13.790;2024-02-26T12:45:12;9.48;;;5.15;;
76761;SDS011;65705;51.032;13.790;2024-02-26T12:47:40;11.35;;;4.93;;
76761;SDS011;65705;51.032;13.790;2024-02-26T12:50:07;12.48;;;4.78;;
76761;SDS011;65705;51.032;13.790;2024-02-26T12:52:34;11.88;;;5.10;;
76761;SDS011;65705;51.032;13.790;2024-02-26T12:55:01;11.35;;;4.68;;
76761;SDS011;65705;51.032;13.790;2024-02-26T12:57:31;9.93;;;4.70;;
76761;SDS011;65705;51.032;13.790;2024-02-26T12:59:58;10.10;;;4.85;;
76761;SDS011;65705;51.032;13.790;2024-02-26T13:02:25;13.32;;;4.70;;
76761;SDS011;65705;51.032;13.790;2024-02-26T13:04:52;8.52;;;4.43;;
76761;SDS011;65705;51.032;13.790;2024-02-26T13:07:20;8.80;;;5.07;;
76761;SDS011;65705;51.032;13.790;2024-02-26T13:09:46;8.77;;;4.55;;
76761;SDS011;65705;51.032;13.790;2024-02-26T13:12:12;6.93;;;3.88;;
76761;SDS011;65705;51.032;13.790;2024-02-26T13:14:39;7.93;;;4.53;;
76761;SDS011;65705;51.032;13.790;2024-02-26T13:17:05;11.48;;;5.18;;
76761;SDS011;65705;51.032;13.790;2024-02-26T13:19:30;11.65;;;5.50;;
76761;SDS011;65705;51.032;13.790;2024-02-26T13:22:02;10.88;;;4.30;;
76761;SDS011;65705;51.032;13.790;2024-02-26T13:24:29;8.88;;;4.35;;
76761;SDS011;65705;51.032;13.790;2024-02-26T13:26:56;13.18;;;5.65;;
76761;SDS011;65705;51.032;13.790;2024-02-26T13:29:22;11.95;;;4.38;;
76761;SDS011;65705;51.032;13.790;2024-02-26T13:31:54;18.73;;;4.93;;
76761;SDS011;65705;51.032;13.790;2024-02-26T13:34:27;10.27;;;5.35;;
76761;SDS011;65705;51.032;13.790;2024-02-26T13:39:26;10.68;;;5.82;;
76761;SDS011;65705;51.032;13.790;2024-02-26T13:41:53;15.48;;;7.75;;
76761;SDS011;65705;51.032;13.790;2024-02-26T13:44:20;22.58;;;7.90;;
76761;SDS011;65705;51.032;13.790;2024-02-26T13:46:46;11.07;;;6.50;;
76761;SDS011;65705;51.032;13.790;2024-02-26T13:49:13;14.90;;;5.88;;
76761;SDS011;65705;51.032;13.790;2024-02-26T13:51:39;11.77;;;5.38;;
76761;SDS011;65705;51.032;13.790;2024-02-26T13:54:05;9.43;;;5.55;;
76761;SDS011;65705;51.032;13.790;2024-02-26T13:56:31;11.82;;;5.13;;
76761;SDS011;65705;51.032;13.790;2024-02-26T13:58:57;10.32;;;5.10;;
76761;SDS011;65705;51.032;13.790;2024-02-26T14:01:23;12.77;;;6.20;;
76761;SDS011;65705;51.032;13.790;2024-02-26T14:03:49;12.45;;;5.97;;
76761;SDS011;65705;51.032;13.790;2024-02-26T14:06:15;14.55;;;5.90;;
76761;SDS011;65705;51.032;13.790;2024-02-26T14:08:41;10.98;;;6.25;;
76761;SDS011;65705;51.032;13.790;2024-02-26T14:11:07;22.75;;;10.35;;
76761;SDS011;65705;51.032;13.790;2024-02-26T14:13:33;16.60;;;7.40;;
76761;SDS011;65705;51.032;13.790;2024-02-26T14:15:59;12.77;;;6.43;;
76761;SDS011;65705;51.032;13.790;2024-02-26T14:18:25;11.73;;;6.05;;